sensor_id;sensor_type;location;lat;lon;timestamp;P1;durP1;ratioP1;P2;durP2;ratioP2
20142;SDS011;10509;46.476;7.134;2023-03-05T00:01:18;25.73;;;23.13;;
20142;SDS011;10509;46.476;7.134;2023-03-05T00:03:46;26.47;;;23.50;;
20142;SDS011;10509;46.476;7.134;2023-03-05T00:06:12;28.83;;;25.47;;
20142;SDS011;10509;46.476;7.134;2023-03-05T00:08:41;26.27;;;23.57;;
20142;SDS011;10509;46.476;7.134;2023-03-05T00:11:08;25.57;;;22.83;;
20142;SDS011;10509;46.476;7.134;2023-03-05T00:13:34;25.73;;;23.03;;
20142;SDS011;10509;46.476;7.134;2023-03-05T00:16:08;25.40;;;22.90;;
20142;SDS011;10509;46.476;7.134;2023-03-05T00:18:35;27.20;;;23.53;;
20142;SDS011;10509;46.476;7.134;2023-03-05T00:21:01;30.87;;;23.40;;
20142;SDS011;10509;46.476;7.134;2023-03-05T00:23:27;27.73;;;24.80;;
20142;SDS011;10509;46.476;7.134;2023-03-05T00:25:53;31.40;;;25.23;;
20142;SDS011;10509;46.476;7.134;2023-03-05T00:28:19;27.70;;;24.90;;
20142;SDS011;10509;46.476;7.134;2023-03-05T00:30:45;26.73;;;24.23;;
20142;SDS011;10509;46.476;7.134;2023-03-05T00:33:12;29.07;;;23.03;;
20142;SDS011;10509;46.476;7.134;2023-03-05T00:35:42;30.07;;;25.50;;
20142;SDS011;10509;46.476;7.134;2023-03-05T00:38:09;25.50;;;23.00;;
20142;SDS011;10509;46.476;7.134;2023-03-05T00:40:36;27.13;;;23.00;;
20142;SDS011;10509;46.476;7.134;2023-03-05T00:43:02;24.43;;;22.23;;
20142;SDS011;10509;46.476;7.134;2023-03-05T00:45:28;24.57;;;22.10;;
20142;SDS011;10509;46.476;7.134;2023-03-05T00:47:54;26.63;;;23.50;;
20142;SDS011;10509;46.476;7.134;2023-03-05T00:50:20;25.03;;;22.47;;
20142;SDS011;10509;46.476;7.134;2023-03-05T00:52:46;25.37;;;21.73;;
20142;SDS011;10509;46.476;7.134;2023-03-05T00:55:12;23.73;;;21.47;;
20142;SDS011;10509;46.476;7.134;2023-03-05T00:57:38;25.30;;;22.57;;
20142;SDS011;10509;46.476;7.134;2023-03-05T01:00:05;26.07;;;23.40;;
20142;SDS011;10509;46.476;7.134;2023-03-05T01:02:31;26.13;;;23.47;;
20142;SDS011;10509;46.476;7.134;2023-03-05T01:04:57;25.93;;;23.27;;
20142;SDS011;10509;46.476;7.134;2023-03-05T01:07:23;25.37;;;22.60;;
20142;SDS011;10509;46.476;7.134;2023-03-05T01:09:49;25.17;;;22.57;;
20142;SDS011;10509;46.476;7.134;2023-03-05T01:12:15;25.27;;;22.67;;
20142;SDS011;10509;46.476;7.134;2023-03-05T01:14:41;25.30;;;22.70;;
20142;SDS011;10509;46.476;7.134;2023-03-05T01:17:07;27.10;;;24.13;;
20142;SDS011;10509;46.476;7.134;2023-03-05T01:19:33;25.27;;;22.57;;
20142;SDS011;10509;46.476;7.134;2023-03-05T01:21:59;26.70;;;23.23;;
20142;SDS011;10509;46.476;7.134;2023-03-05T01:24:25;26.70;;;24.10;;
20142;SDS011;10509;46.476;7.134;2023-03-05T01:26:51;26.30;;;23.57;;
20142;SDS011;10509;46.476;7.134;2023-03-05T01:29:17;25.43;;;22.83;;
20142;SDS011;10509;46.476;7.134;2023-03-05T01:31:43;26.27;;;23.37;;
20142;SDS011;10509;46.476;7.134;2023-03-05T01:34:09;27.47;;;23.80;;
20142;SDS011;10509;46.476;7.134;2023-03-05T01:36:35;26.17;;;23.50;;
20142;SDS011;10509;46.476;7.134;2023-03-05T01:39:01;25.33;;;22.63;;
20142;SDS011;10509;46.476;7.134;2023-03-05T01:41:27;24.37;;;21.97;;
20142;SDS011;10509;46.476;7.134;2023-03-05T01:43:53;25.80;;;21.33;;
20142;SDS011;10509;46.476;7.134;2023-03-05T01:48:50;24.13;;;21.77;;
20142;SDS011;10509;46.476;7.134;2023-03-05T01:51:17;26.43;;;22.00;;
20142;SDS011;10509;46.476;7.134;2023-03-05T01:53:43;24.80;;;22.20;;
20142;SDS011;10509;46.476;7.134;2023-03-05T01:56:09;25.27;;;22.67;;
20142;SDS011;10509;46.476;7.134;2023-03-05T01:58:36;26.03;;;22.57;;
20142;SDS011;10509;46.476;7.134;2023-03-05T02:01:03;24.07;;;21.63;;
20142;SDS011;10509;46.476;7.134;2023-03-05T02:03:30;24.17;;;21.70;;
20142;SDS011;10509;46.476;7.134;2023-03-05T02:05:56;23.23;;;21.00;;
20142;SDS011;10509;46.476;7.134;2023-03-05T02:08:22;23.50;;;21.10;;
20142;SDS011;10509;46.476;7.134;2023-03-05T02:10:49;23.27;;;21.13;;
20142;SDS011;10509;46.476;7.134;2023-03-05T02:13:20;26.00;;;23.30;;
20142;SDS011;10509;46.476;7.134;2023-03-05T02:15:46;24.87;;;22.13;;
20142;SDS011;10509;46.476;7.134;2023-03-05T02:18:14;24.93;;;22.33;;
20142;SDS011;10509;46.476;7.134;2023-03-05T02:23:12;22.77;;;20.50;;
20142;SDS011;10509;46.476;7.134;2023-03-05T02:25:38;23.47;;;21.07;;
20142;SDS011;10509;46.476;7.134;2023-03-05T02:28:15;23.93;;;21.43;;
20142;SDS011;10509;46.476;7.134;2023-03-05T02:30:42;23.07;;;20.73;;
20142;SDS011;10509;46.476;7.134;2023-03-05T02:33:08;23.83;;;21.10;;
20142;SDS011;10509;46.476;7.134;2023-03-05T02:35:35;22.73;;;20.37;;
20142;SDS011;10509;46.476;7.134;2023-03-05T02:38:01;21.97;;;20.10;;
20142;SDS011;10509;46.476;7.134;2023-03-05T02:40:27;23.07;;;20.97;;
20142;SDS011;10509;46.476;7.134;2023-03-05T02:42:54;24.90;;;20.33;;
20142;SDS011;10509;46.476;7.134;2023-03-05T02:45:20;22.97;;;20.80;;
20142;SDS011;10509;46.476;7.134;2023-03-05T02:47:46;23.47;;;21.00;;
20142;SDS011;10509;46.476;7.134;2023-03-05T02:50:12;24.13;;;21.73;;
20142;SDS011;10509;46.476;7.134;2023-03-05T02:52:38;23.50;;;21.20;;
20142;SDS011;10509;46.476;7.134;2023-03-05T02:55:04;24.20;;;21.83;;
20142;SDS011;10509;46.476;7.134;2023-03-05T02:57:31;22.90;;;20.33;;
20142;SDS011;10509;46.476;7.134;2023-03-05T02:59:57;23.73;;;20.43;;
20142;SDS011;10509;46.476;7.134;2023-03-05T03:02:23;24.53;;;21.87;;
20142;SDS011;10509;46.476;7.134;2023-03-05T03:04:49;22.53;;;20.50;;
20142;SDS011;10509;46.476;7.134;2023-03-05T03:07:15;22.77;;;20.50;;
20142;SDS011;10509;46.476;7.134;2023-03-05T03:09:41;22.63;;;20.53;;
20142;SDS011;10509;46.476;7.134;2023-03-05T03:12:07;24.17;;;21.67;;
20142;SDS011;10509;46.476;7.134;2023-03-05T03:14:34;22.17;;;20.07;;
20142;SDS011;10509;46.476;7.134;2023-03-05T03:17:04;22.50;;;19.93;;
20142;SDS011;10509;46.476;7.134;2023-03-05T03:19:30;22.60;;;20.37;;
20142;SDS011;10509;46.476;7.134;2023-03-05T03:21:56;22.50;;;20.50;;
20142;SDS011;10509;46.476;7.134;2023-03-05T03:24:22;21.43;;;19.47;;
20142;SDS011;10509;46.476;7.134;2023-03-05T03:26:48;22.70;;;20.30;;
20142;SDS011;10509;46.476;7.134;2023-03-05T03:29:15;22.70;;;20.37;;
20142;SDS011;10509;46.476;7.134;2023-03-05T03:31:42;21.53;;;19.57;;
20142;SDS011;10509;46.476;7.134;2023-03-05T03:34:09;24.07;;;21.50;;
20142;SDS011;10509;46.476;7.134;2023-03-05T03:36:35;22.23;;;20.00;;
20142;SDS011;10509;46.476;7.134;2023-03-05T03:39:01;23.70;;;21.07;;
20142;SDS011;10509;46.476;7.134;2023-03-05T03:41:29;22.17;;;20.27;;
20142;SDS011;10509;46.476;7.134;2023-03-05T03:43:56;22.37;;;20.23;;
20142;SDS011;10509;46.476;7.134;2023-03-05T03:46:22;22.50;;;20.60;;
20142;SDS011;10509;46.476;7.134;2023-03-05T03:48:50;22.43;;;20.23;;
20142;SDS011;10509;46.476;7.134;2023-03-05T03:51:16;21.47;;;19.43;;
20142;SDS011;10509;46.476;7.134;2023-03-05T03:53:42;21.77;;;19.63;;
20142;SDS011;10509;46.476;7.134;2023-03-05T03:56:08;21.67;;;19.70;;
20142;SDS011;10509;46.476;7.134;2023-03-05T03:58:34;21.00;;;18.90;;
20142;SDS011;10509;46.476;7.134;2023-03-05T04:01:00;21.03;;;19.03;;
20142;SDS011;10509;46.476;7.134;2023-03-05T04:03:26;20.67;;;18.67;;
20142;SDS011;10509;46.476;7.134;2023-03-05T04:05:52;23.43;;;19.10;;
20142;SDS011;10509;46.476;7.134;2023-03-05T04:08:18;21.53;;;19.53;;
20142;SDS011;10509;46.476;7.134;2023-03-05T04:10:44;20.77;;;18.87;;
20142;SDS011;10509;46.476;7.134;2023-03-05T04:13:10;20.53;;;18.73;;
20142;SDS011;10509;46.476;7.134;2023-03-05T04:15:36;21.57;;;19.53;;
20142;SDS011;10509;46.476;7.134;2023-03-05T04:18:02;21.73;;;19.70;;
20142;SDS011;10509;46.476;7.134;2023-03-05T04:20:29;21.37;;;19.20;;
20142;SDS011;10509;46.476;7.134;2023-03-05T04:22:55;20.67;;;18.97;;
20142;SDS011;10509;46.476;7.134;2023-03-05T04:25:21;21.57;;;19.47;;
20142;SDS011;10509;46.476;7.134;2023-03-05T04:27:47;20.93;;;19.03;;
20142;SDS011;10509;46.476;7.134;2023-03-05T04:30:13;21.30;;;19.07;;
20142;SDS011;10509;46.476;7.134;2023-03-05T04:32:39;22.40;;;20.40;;
20142;SDS011;10509;46.476;7.134;2023-03-05T04:35:05;20.80;;;18.83;;
20142;SDS011;10509;46.476;7.134;2023-03-05T04:37:32;20.80;;;19.00;;
20142;SDS011;10509;46.476;7.134;2023-03-05T04:39:58;21.63;;;19.73;;
20142;SDS011;10509;46.476;7.134;2023-03-05T04:42:24;20.43;;;18.47;;
20142;SDS011;10509;46.476;7.134;2023-03-05T04:44:50;21.27;;;19.23;;
20142;SDS011;10509;46.476;7.134;2023-03-05T04:47:16;21.60;;;19.47;;
20142;SDS011;10509;46.476;7.134;2023-03-05T04:49:43;21.13;;;18.80;;
20142;SDS011;10509;46.476;7.134;2023-03-05T04:52:10;22.20;;;20.10;;
20142;SDS011;10509;46.476;7.134;2023-03-05T04:54:36;21.93;;;19.73;;
20142;SDS011;10509;46.476;7.134;2023-03-05T04:57:02;22.73;;;20.33;;
20142;SDS011;10509;46.476;7.134;2023-03-05T04:59:29;23.30;;;20.97;;
20142;SDS011;10509;46.476;7.134;2023-03-05T05:01:55;23.27;;;20.93;;
20142;SDS011;10509;46.476;7.134;2023-03-05T05:04:21;21.83;;;19.27;;
20142;SDS011;10509;46.476;7.134;2023-03-05T05:06:47;21.93;;;19.77;;
20142;SDS011;10509;46.476;7.134;2023-03-05T05:09:13;21.20;;;19.17;;
20142;SDS011;10509;46.476;7.134;2023-03-05T05:11:39;20.47;;;18.53;;
20142;SDS011;10509;46.476;7.134;2023-03-05T05:14:05;21.80;;;19.90;;
20142;SDS011;10509;46.476;7.134;2023-03-05T05:16:31;21.70;;;19.73;;
20142;SDS011;10509;46.476;7.134;2023-03-05T05:18:57;20.50;;;18.60;;
20142;SDS011;10509;46.476;7.134;2023-03-05T05:21:23;21.40;;;19.50;;
20142;SDS011;10509;46.476;7.134;2023-03-05T05:23:49;23.13;;;20.73;;
20142;SDS011;10509;46.476;7.134;2023-03-05T05:26:15;21.63;;;19.63;;
20142;SDS011;10509;46.476;7.134;2023-03-05T05:28:41;22.20;;;20.13;;
20142;SDS011;10509;46.476;7.134;2023-03-05T05:31:08;22.33;;;20.13;;
20142;SDS011;10509;46.476;7.134;2023-03-05T05:33:35;23.23;;;20.93;;
20142;SDS011;10509;46.476;7.134;2023-03-05T05:36:02;22.23;;;20.23;;
20142;SDS011;10509;46.476;7.134;2023-03-05T05:38:28;21.57;;;19.27;;
20142;SDS011;10509;46.476;7.134;2023-03-05T05:41:00;22.30;;;20.20;;
20142;SDS011;10509;46.476;7.134;2023-03-05T05:43:26;22.53;;;20.33;;
20142;SDS011;10509;46.476;7.134;2023-03-05T05:45:52;22.03;;;19.73;;
20142;SDS011;10509;46.476;7.134;2023-03-05T05:48:18;21.70;;;19.70;;
20142;SDS011;10509;46.476;7.134;2023-03-05T05:50:44;22.80;;;20.80;;
20142;SDS011;10509;46.476;7.134;2023-03-05T05:53:10;23.37;;;20.93;;
20142;SDS011;10509;46.476;7.134;2023-03-05T05:55:38;22.00;;;19.80;;
20142;SDS011;10509;46.476;7.134;2023-03-05T05:58:05;21.03;;;19.07;;
20142;SDS011;10509;46.476;7.134;2023-03-05T06:00:31;22.87;;;20.63;;
20142;SDS011;10509;46.476;7.134;2023-03-05T06:02:57;24.23;;;20.20;;
20142;SDS011;10509;46.476;7.134;2023-03-05T06:05:23;22.50;;;20.33;;
20142;SDS011;10509;46.476;7.134;2023-03-05T06:07:49;21.10;;;19.00;;
20142;SDS011;10509;46.476;7.134;2023-03-05T06:10:15;21.43;;;19.30;;
20142;SDS011;10509;46.476;7.134;2023-03-05T06:12:41;21.97;;;19.97;;
20142;SDS011;10509;46.476;7.134;2023-03-05T06:15:07;22.87;;;20.67;;
20142;SDS011;10509;46.476;7.134;2023-03-05T06:17:33;24.53;;;21.13;;
20142;SDS011;10509;46.476;7.134;2023-03-05T06:19:59;24.90;;;20.23;;
20142;SDS011;10509;46.476;7.134;2023-03-05T06:22:25;21.17;;;19.23;;
20142;SDS011;10509;46.476;7.134;2023-03-05T06:24:51;22.10;;;20.00;;
20142;SDS011;10509;46.476;7.134;2023-03-05T06:27:17;21.47;;;19.43;;
20142;SDS011;10509;46.476;7.134;2023-03-05T06:29:43;22.30;;;20.20;;
20142;SDS011;10509;46.476;7.134;2023-03-05T06:32:09;23.00;;;20.80;;
20142;SDS011;10509;46.476;7.134;2023-03-05T06:34:35;23.70;;;21.07;;
20142;SDS011;10509;46.476;7.134;2023-03-05T06:37:01;22.63;;;20.17;;
20142;SDS011;10509;46.476;7.134;2023-03-05T06:39:27;25.03;;;22.40;;
20142;SDS011;10509;46.476;7.134;2023-03-05T06:41:55;27.60;;;22.43;;
20142;SDS011;10509;46.476;7.134;2023-03-05T06:44:21;22.27;;;20.17;;
20142;SDS011;10509;46.476;7.134;2023-03-05T06:46:47;21.47;;;19.57;;
20142;SDS011;10509;46.476;7.134;2023-03-05T06:49:13;22.80;;;20.70;;
20142;SDS011;10509;46.476;7.134;2023-03-05T06:51:39;23.53;;;21.27;;
20142;SDS011;10509;46.476;7.134;2023-03-05T06:54:12;23.40;;;17.90;;
20142;SDS011;10509;46.476;7.134;2023-03-05T06:56:40;18.47;;;16.67;;
20142;SDS011;10509;46.476;7.134;2023-03-05T06:59:06;24.27;;;18.13;;
20142;SDS011;10509;46.476;7.134;2023-03-05T07:01:32;18.57;;;16.60;;
20142;SDS011;10509;46.476;7.134;2023-03-05T07:03:59;17.97;;;16.33;;
20142;SDS011;10509;46.476;7.134;2023-03-05T07:06:27;18.50;;;16.77;;
20142;SDS011;10509;46.476;7.134;2023-03-05T07:08:54;17.03;;;15.47;;
20142;SDS011;10509;46.476;7.134;2023-03-05T07:11:20;19.17;;;17.13;;
20142;SDS011;10509;46.476;7.134;2023-03-05T07:13:46;16.03;;;14.50;;
20142;SDS011;10509;46.476;7.134;2023-03-05T07:16:14;22.57;;;17.27;;
20142;SDS011;10509;46.476;7.134;2023-03-05T07:18:40;17.90;;;16.10;;
20142;SDS011;10509;46.476;7.134;2023-03-05T07:21:07;17.63;;;15.33;;
20142;SDS011;10509;46.476;7.134;2023-03-05T07:23:34;19.63;;;17.27;;
20142;SDS011;10509;46.476;7.134;2023-03-05T07:26:01;18.53;;;16.80;;
20142;SDS011;10509;46.476;7.134;2023-03-05T07:28:27;22.70;;;16.97;;
20142;SDS011;10509;46.476;7.134;2023-03-05T07:30:57;17.37;;;15.77;;
20142;SDS011;10509;46.476;7.134;2023-03-05T07:33:24;16.57;;;15.10;;
20142;SDS011;10509;46.476;7.134;2023-03-05T07:35:50;16.63;;;15.23;;
20142;SDS011;10509;46.476;7.134;2023-03-05T07:38:16;16.27;;;15.00;;
20142;SDS011;10509;46.476;7.134;2023-03-05T07:40:42;15.87;;;14.30;;
20142;SDS011;10509;46.476;7.134;2023-03-05T07:43:08;16.43;;;15.10;;
20142;SDS011;10509;46.476;7.134;2023-03-05T07:45:37;18.67;;;16.97;;
20142;SDS011;10509;46.476;7.134;2023-03-05T07:48:04;18.00;;;16.27;;
20142;SDS011;10509;46.476;7.134;2023-03-05T07:50:30;18.87;;;17.17;;
20142;SDS011;10509;46.476;7.134;2023-03-05T07:52:57;18.50;;;14.53;;
20142;SDS011;10509;46.476;7.134;2023-03-05T07:55:23;15.43;;;14.00;;
20142;SDS011;10509;46.476;7.134;2023-03-05T07:57:49;15.70;;;12.97;;
20142;SDS011;10509;46.476;7.134;2023-03-05T08:00:15;15.40;;;14.10;;
20142;SDS011;10509;46.476;7.134;2023-03-05T08:02:41;15.43;;;13.93;;
20142;SDS011;10509;46.476;7.134;2023-03-05T08:05:07;15.30;;;13.97;;
20142;SDS011;10509;46.476;7.134;2023-03-05T08:07:33;23.03;;;15.47;;
20142;SDS011;10509;46.476;7.134;2023-03-05T08:09:59;16.93;;;15.20;;
20142;SDS011;10509;46.476;7.134;2023-03-05T08:12:25;16.23;;;14.70;;
20142;SDS011;10509;46.476;7.134;2023-03-05T08:14:51;15.37;;;13.07;;
20142;SDS011;10509;46.476;7.134;2023-03-05T08:17:17;14.20;;;13.03;;
20142;SDS011;10509;46.476;7.134;2023-03-05T08:19:43;13.00;;;12.00;;
20142;SDS011;10509;46.476;7.134;2023-03-05T08:22:09;14.57;;;13.27;;
20142;SDS011;10509;46.476;7.134;2023-03-05T08:24:35;12.20;;;11.10;;
20142;SDS011;10509;46.476;7.134;2023-03-05T08:27:02;13.70;;;10.33;;
20142;SDS011;10509;46.476;7.134;2023-03-05T08:29:28;18.47;;;16.70;;
20142;SDS011;10509;46.476;7.134;2023-03-05T08:31:54;10.90;;;10.00;;
20142;SDS011;10509;46.476;7.134;2023-03-05T08:34:20;21.40;;;18.53;;
20142;SDS011;10509;46.476;7.134;2023-03-05T08:36:47;14.77;;;13.53;;
20142;SDS011;10509;46.476;7.134;2023-03-05T08:39:13;12.47;;;11.20;;
20142;SDS011;10509;46.476;7.134;2023-03-05T08:41:39;13.17;;;12.10;;
20142;SDS011;10509;46.476;7.134;2023-03-05T08:44:05;13.63;;;12.27;;
20142;SDS011;10509;46.476;7.134;2023-03-05T08:46:31;13.73;;;12.40;;
20142;SDS011;10509;46.476;7.134;2023-03-05T08:48:58;13.07;;;11.80;;
20142;SDS011;10509;46.476;7.134;2023-03-05T08:51:25;13.23;;;11.93;;
20142;SDS011;10509;46.476;7.134;2023-03-05T08:53:52;12.50;;;11.60;;
20142;SDS011;10509;46.476;7.134;2023-03-05T08:56:18;12.20;;;11.10;;
20142;SDS011;10509;46.476;7.134;2023-03-05T08:58:44;12.27;;;11.37;;
20142;SDS011;10509;46.476;7.134;2023-03-05T09:01:11;13.37;;;12.07;;
20142;SDS011;10509;46.476;7.134;2023-03-05T09:03:38;12.63;;;10.93;;
20142;SDS011;10509;46.476;7.134;2023-03-05T09:06:05;13.10;;;12.07;;
20142;SDS011;10509;46.476;7.134;2023-03-05T09:08:32;12.77;;;11.67;;
20142;SDS011;10509;46.476;7.134;2023-03-05T09:11:00;12.27;;;11.27;;
20142;SDS011;10509;46.476;7.134;2023-03-05T09:13:26;11.80;;;10.90;;
20142;SDS011;10509;46.476;7.134;2023-03-05T09:15:53;12.27;;;11.33;;
20142;SDS011;10509;46.476;7.134;2023-03-05T09:18:19;13.13;;;11.90;;
20142;SDS011;10509;46.476;7.134;2023-03-05T09:20:45;11.50;;;10.57;;
20142;SDS011;10509;46.476;7.134;2023-03-05T09:23:11;11.90;;;10.83;;
20142;SDS011;10509;46.476;7.134;2023-03-05T09:25:38;11.40;;;10.50;;
20142;SDS011;10509;46.476;7.134;2023-03-05T09:28:05;11.70;;;10.80;;
20142;SDS011;10509;46.476;7.134;2023-03-05T09:30:31;12.63;;;11.63;;
20142;SDS011;10509;46.476;7.134;2023-03-05T09:32:59;11.27;;;10.27;;
20142;SDS011;10509;46.476;7.134;2023-03-05T09:35:25;11.70;;;10.67;;
20142;SDS011;10509;46.476;7.134;2023-03-05T09:37:51;11.13;;;10.23;;
20142;SDS011;10509;46.476;7.134;2023-03-05T09:40:18;13.70;;;11.47;;
20142;SDS011;10509;46.476;7.134;2023-03-05T09:42:46;11.07;;;10.17;;
20142;SDS011;10509;46.476;7.134;2023-03-05T09:47:53;11.57;;;10.70;;
20142;SDS011;10509;46.476;7.134;2023-03-05T09:55:35;11.00;;;9.90;;
20142;SDS011;10509;46.476;7.134;2023-03-05T10:00:40;13.63;;;12.53;;
20142;SDS011;10509;46.476;7.134;2023-03-05T10:03:17;11.50;;;10.43;;
20142;SDS011;10509;46.476;7.134;2023-03-05T10:05:50;12.20;;;11.00;;
20142;SDS011;10509;46.476;7.134;2023-03-05T10:08:19;12.23;;;10.83;;
20142;SDS011;10509;46.476;7.134;2023-03-05T10:10:47;12.47;;;11.30;;
20142;SDS011;10509;46.476;7.134;2023-03-05T10:13:21;12.30;;;11.23;;
20142;SDS011;10509;46.476;7.134;2023-03-05T10:15:58;12.30;;;11.17;;
20142;SDS011;10509;46.476;7.134;2023-03-05T10:20:58;13.10;;;11.90;;
20142;SDS011;10509;46.476;7.134;2023-03-05T10:31:12;13.73;;;12.37;;
20142;SDS011;10509;46.476;7.134;2023-03-05T10:39:24;16.70;;;15.10;;
20142;SDS011;10509;46.476;7.134;2023-03-05T10:41:37;18.97;;;17.23;;
20142;SDS011;10509;46.476;7.134;2023-03-05T10:44:18;20.87;;;17.67;;
20142;SDS011;10509;46.476;7.134;2023-03-05T10:46:45;20.43;;;18.30;;
20142;SDS011;10509;46.476;7.134;2023-03-05T10:52:03;21.93;;;19.73;;
20142;SDS011;10509;46.476;7.134;2023-03-05T10:54:33;23.07;;;20.63;;
20142;SDS011;10509;46.476;7.134;2023-03-05T10:59:46;23.93;;;21.73;;
20142;SDS011;10509;46.476;7.134;2023-03-05T11:02:13;23.60;;;21.17;;
20142;SDS011;10509;46.476;7.134;2023-03-05T11:04:39;22.80;;;20.57;;
20142;SDS011;10509;46.476;7.134;2023-03-05T11:07:06;24.53;;;22.03;;
20142;SDS011;10509;46.476;7.134;2023-03-05T11:09:32;27.40;;;23.37;;
20142;SDS011;10509;46.476;7.134;2023-03-05T11:12:09;25.43;;;22.60;;
20142;SDS011;10509;46.476;7.134;2023-03-05T11:14:36;25.97;;;23.33;;
20142;SDS011;10509;46.476;7.134;2023-03-05T11:17:21;27.07;;;24.43;;
20142;SDS011;10509;46.476;7.134;2023-03-05T11:19:48;26.80;;;24.20;;
20142;SDS011;10509;46.476;7.134;2023-03-05T11:22:15;26.47;;;23.50;;
20142;SDS011;10509;46.476;7.134;2023-03-05T11:24:42;24.83;;;22.53;;
20142;SDS011;10509;46.476;7.134;2023-03-05T11:27:33;27.67;;;23.43;;
20142;SDS011;10509;46.476;7.134;2023-03-05T11:29:59;25.00;;;22.40;;
20142;SDS011;10509;46.476;7.134;2023-03-05T11:32:26;25.70;;;23.30;;
20142;SDS011;10509;46.476;7.134;2023-03-05T11:34:54;22.97;;;20.97;;
20142;SDS011;10509;46.476;7.134;2023-03-05T11:37:25;26.37;;;23.63;;
20142;SDS011;10509;46.476;7.134;2023-03-05T11:42:53;29.70;;;22.77;;
20142;SDS011;10509;46.476;7.134;2023-03-05T11:45:20;25.10;;;22.43;;
20142;SDS011;10509;46.476;7.134;2023-03-05T11:47:51;25.97;;;23.30;;
20142;SDS011;10509;46.476;7.134;2023-03-05T11:50:19;25.60;;;22.90;;
20142;SDS011;10509;46.476;7.134;2023-03-05T11:52:50;26.73;;;23.97;;
20142;SDS011;10509;46.476;7.134;2023-03-05T11:55:29;28.20;;;24.93;;
20142;SDS011;10509;46.476;7.134;2023-03-05T11:58:06;26.73;;;24.03;;
20142;SDS011;10509;46.476;7.134;2023-03-05T12:00:36;27.33;;;24.47;;
20142;SDS011;10509;46.476;7.134;2023-03-05T12:03:08;27.87;;;24.90;;
20142;SDS011;10509;46.476;7.134;2023-03-05T12:05:36;29.53;;;26.50;;
20142;SDS011;10509;46.476;7.134;2023-03-05T12:08:04;30.80;;;27.43;;
20142;SDS011;10509;46.476;7.134;2023-03-05T12:10:30;29.33;;;26.37;;
20142;SDS011;10509;46.476;7.134;2023-03-05T12:15:46;28.73;;;25.63;;
20142;SDS011;10509;46.476;7.134;2023-03-05T12:23:12;28.90;;;26.00;;
20142;SDS011;10509;46.476;7.134;2023-03-05T12:28:16;30.33;;;27.03;;
20142;SDS011;10509;46.476;7.134;2023-03-05T12:33:28;31.77;;;27.60;;
20142;SDS011;10509;46.476;7.134;2023-03-05T12:35:54;30.97;;;26.43;;
20142;SDS011;10509;46.476;7.134;2023-03-05T12:38:40;29.33;;;26.40;;
20142;SDS011;10509;46.476;7.134;2023-03-05T12:46:41;27.90;;;24.97;;
20142;SDS011;10509;46.476;7.134;2023-03-05T12:51:56;30.90;;;26.60;;
20142;SDS011;10509;46.476;7.134;2023-03-05T12:54:27;34.73;;;27.40;;
20142;SDS011;10509;46.476;7.134;2023-03-05T12:56:54;32.10;;;28.23;;
20142;SDS011;10509;46.476;7.134;2023-03-05T12:59:22;31.23;;;27.83;;
20142;SDS011;10509;46.476;7.134;2023-03-05T13:01:51;35.07;;;26.53;;
20142;SDS011;10509;46.476;7.134;2023-03-05T13:04:22;29.40;;;26.33;;
20142;SDS011;10509;46.476;7.134;2023-03-05T13:07:00;32.93;;;28.87;;
20142;SDS011;10509;46.476;7.134;2023-03-05T13:09:27;35.07;;;29.27;;
20142;SDS011;10509;46.476;7.134;2023-03-05T13:11:55;31.93;;;28.53;;
20142;SDS011;10509;46.476;7.134;2023-03-05T13:14:40;33.10;;;29.00;;
20142;SDS011;10509;46.476;7.134;2023-03-05T13:19:53;34.67;;;29.73;;
20142;SDS011;10509;46.476;7.134;2023-03-05T13:22:19;33.57;;;29.97;;
20142;SDS011;10509;46.476;7.134;2023-03-05T13:24:45;36.73;;;30.13;;
20142;SDS011;10509;46.476;7.134;2023-03-05T13:27:18;32.57;;;28.87;;
20142;SDS011;10509;46.476;7.134;2023-03-05T13:29:51;37.87;;;31.57;;
20142;SDS011;10509;46.476;7.134;2023-03-05T13:32:27;34.23;;;30.57;;
20142;SDS011;10509;46.476;7.134;2023-03-05T13:34:54;38.50;;;32.43;;
20142;SDS011;10509;46.476;7.134;2023-03-05T13:37:21;34.97;;;31.23;;
20142;SDS011;10509;46.476;7.134;2023-03-05T13:42:19;39.80;;;32.43;;
20142;SDS011;10509;46.476;7.134;2023-03-05T13:44:55;34.20;;;30.60;;
20142;SDS011;10509;46.476;7.134;2023-03-05T13:47:22;35.67;;;30.93;;
20142;SDS011;10509;46.476;7.134;2023-03-05T13:49:58;34.63;;;30.93;;
20142;SDS011;10509;46.476;7.134;2023-03-05T13:52:26;34.17;;;30.53;;
20142;SDS011;10509;46.476;7.134;2023-03-05T13:54:53;38.27;;;32.03;;
20142;SDS011;10509;46.476;7.134;2023-03-05T13:59:57;39.27;;;31.93;;
20142;SDS011;10509;46.476;7.134;2023-03-05T14:02:24;35.80;;;31.27;;
20142;SDS011;10509;46.476;7.134;2023-03-05T14:04:52;35.73;;;31.90;;
20142;SDS011;10509;46.476;7.134;2023-03-05T14:09:45;36.63;;;32.73;;
20142;SDS011;10509;46.476;7.134;2023-03-05T14:14:47;36.07;;;32.10;;
20142;SDS011;10509;46.476;7.134;2023-03-05T14:22:36;34.30;;;30.60;;
20142;SDS011;10509;46.476;7.134;2023-03-05T14:25:04;33.93;;;30.43;;
20142;SDS011;10509;46.476;7.134;2023-03-05T14:27:32;36.53;;;31.20;;
20142;SDS011;10509;46.476;7.134;2023-03-05T14:29:59;37.20;;;30.63;;
20142;SDS011;10509;46.476;7.134;2023-03-05T14:32:29;41.53;;;31.20;;
20142;SDS011;10509;46.476;7.134;2023-03-05T14:34:57;32.93;;;29.40;;
20142;SDS011;10509;46.476;7.134;2023-03-05T14:42:36;32.67;;;29.47;;
20142;SDS011;10509;46.476;7.134;2023-03-05T14:45:37;35.73;;;30.43;;
20142;SDS011;10509;46.476;7.134;2023-03-05T14:47:56;37.27;;;30.07;;
20142;SDS011;10509;46.476;7.134;2023-03-05T14:50:23;33.23;;;29.73;;
20142;SDS011;10509;46.476;7.134;2023-03-05T14:52:50;34.37;;;30.67;;
20142;SDS011;10509;46.476;7.134;2023-03-05T14:55:19;34.50;;;30.03;;
20142;SDS011;10509;46.476;7.134;2023-03-05T14:57:45;35.67;;;29.27;;
20142;SDS011;10509;46.476;7.134;2023-03-05T15:00:19;35.97;;;29.50;;
20142;SDS011;10509;46.476;7.134;2023-03-05T15:02:45;34.27;;;29.37;;
20142;SDS011;10509;46.476;7.134;2023-03-05T15:05:11;36.27;;;29.80;;
20142;SDS011;10509;46.476;7.134;2023-03-05T15:07:37;34.77;;;31.07;;
20142;SDS011;10509;46.476;7.134;2023-03-05T15:10:03;32.53;;;28.97;;
20142;SDS011;10509;46.476;7.134;2023-03-05T15:12:31;33.23;;;29.57;;
20142;SDS011;10509;46.476;7.134;2023-03-05T15:14:57;31.23;;;27.93;;
20142;SDS011;10509;46.476;7.134;2023-03-05T15:17:33;33.80;;;30.17;;
20142;SDS011;10509;46.476;7.134;2023-03-05T15:20:00;33.07;;;29.30;;
20142;SDS011;10509;46.476;7.134;2023-03-05T15:22:30;33.07;;;28.50;;
20142;SDS011;10509;46.476;7.134;2023-03-05T15:24:56;38.07;;;32.73;;
20142;SDS011;10509;46.476;7.134;2023-03-05T15:27:23;32.47;;;28.23;;
20142;SDS011;10509;46.476;7.134;2023-03-05T15:29:49;33.30;;;28.93;;
20142;SDS011;10509;46.476;7.134;2023-03-05T15:32:15;32.93;;;28.37;;
20142;SDS011;10509;46.476;7.134;2023-03-05T15:34:41;33.70;;;30.10;;
20142;SDS011;10509;46.476;7.134;2023-03-05T15:37:07;31.53;;;28.17;;
20142;SDS011;10509;46.476;7.134;2023-03-05T15:39:33;31.50;;;28.10;;
20142;SDS011;10509;46.476;7.134;2023-03-05T15:41:59;29.73;;;26.63;;
20142;SDS011;10509;46.476;7.134;2023-03-05T15:44:25;31.00;;;27.70;;
20142;SDS011;10509;46.476;7.134;2023-03-05T15:46:51;31.90;;;27.03;;